Time;durP1;ratioP1;P1;durP2;ratioP2;P2;SDS_P1;SDS_P2;PMS_P1;PMS_P2;Temp;Humidity;BMP_temperature;BMP_pressure;BME280_temperature;BME280_humidity;BME280_pressure;Samples;Min_cycle;Max_cycle;Signal;HPM_P1;HPM_P2
2022/05/15 00:02:46;;;;;;;7.03;5.60;;;11.90;99.90;;;;;;5071562;28;20565;-69
2022/05/15 00:05:13;;;;;;;6.70;5.90;;;11.80;99.90;;;;;;5071994;28;20452;-68
2022/05/15 00:07:40;;;;;;;6.07;5.23;;;11.70;99.90;;;;;;5071546;28;20453;-70
2022/05/15 00:10:07;;;;;;;14.17;5.50;;;11.60;99.90;;;;;;5070209;28;21071;-70
2022/05/15 00:12:34;;;;;;;9.03;5.50;;;11.60;99.90;;;;;;5070703;28;20932;-69
2022/05/15 00:15:02;;;;;;;8.67;5.47;;;11.50;99.90;;;;;;5070780;28;20976;-70
2022/05/15 00:17:29;;;;;;;6.90;5.50;;;11.50;99.90;;;;;;5069476;28;20451;-70
2022/05/15 00:19:56;;;;;;;6.57;5.57;;;11.40;99.90;;;;;;5070932;28;20467;-70
2022/05/15 00:22:23;;;;;;;7.00;6.20;;;11.40;99.90;;;;;;5070690;28;20963;-70
2022/05/15 00:24:50;;;;;;;7.77;6.37;;;11.50;99.90;;;;;;5071087;28;20454;-69
2022/05/15 00:27:16;;;;;;;6.97;5.40;;;11.40;99.90;;;;;;5070718;28;20455;-70
2022/05/15 00:29:43;;;;;;;5.83;5.23;;;11.20;99.90;;;;;;5068069;28;20509;-67
2022/05/15 00:32:11;;;;;;;6.27;4.80;;;11.20;99.90;;;;;;5070792;28;20451;-67
2022/05/15 00:34:38;;;;;;;8.40;5.67;;;11.20;99.90;;;;;;5070305;28;20454;-68
2022/05/15 00:37:05;;;;;;;6.40;4.80;;;11.10;99.90;;;;;;5070644;28;20835;-69
2022/05/15 00:39:32;;;;;;;6.67;4.90;;;11.10;99.90;;;;;;5070295;28;20471;-67
2022/05/15 00:41:59;;;;;;;6.30;4.77;;;11.10;99.90;;;;;;5070116;28;21128;-67
2022/05/15 00:44:25;;;;;;;7.40;5.33;;;11.10;99.90;;;;;;5070183;28;20936;-69
2022/05/15 00:46:52;;;;;;;7.00;6.10;;;11.20;99.90;;;;;;5070765;28;20451;-67
2022/05/15 00:49:20;;;;;;;6.03;4.67;;;11.10;99.90;;;;;;5070730;28;20493;-67
2022/05/15 00:51:49;;;;;;;5.83;4.67;;;11.20;99.90;;;;;;5070204;28;20451;-67
2022/05/15 00:54:22;;;;;;;6.83;5.10;;;11.00;99.90;;;;;;5070669;28;20461;-68
2022/05/15 00:56:52;;;;;;;9.70;4.87;;;11.00;99.90;;;;;;5069990;28;20455;-68
2022/05/15 00:59:22;;;;;;;7.20;5.00;;;11.00;99.90;;;;;;5070554;28;20510;-68
2022/05/15 01:01:48;;;;;;;7.07;4.77;;;11.00;99.90;;;;;;5069577;28;20459;-68
2022/05/15 01:04:16;;;;;;;6.20;4.70;;;11.00;99.90;;;;;;5070130;28;20928;-67
2022/05/15 01:06:44;;;;;;;6.10;4.90;;;11.10;99.90;;;;;;5069959;28;20963;-68
2022/05/15 01:09:13;;;;;;;9.10;5.60;;;11.10;99.90;;;;;;5066397;28;20561;-67
2022/05/15 01:11:42;;;;;;;7.20;5.73;;;11.00;99.90;;;;;;5069378;28;20451;-67
2022/05/15 01:14:13;;;;;;;6.40;5.77;;;11.00;99.90;;;;;;5069578;28;20447;-68
2022/05/15 01:16:40;;;;;;;7.03;6.33;;;10.90;99.90;;;;;;5069918;28;20451;-67
2022/05/15 01:19:07;;;;;;;8.17;5.60;;;10.90;99.90;;;;;;5069373;28;20478;-67
2022/05/15 01:21:38;;;;;;;7.43;5.77;;;10.80;99.90;;;;;;5069454;28;20451;-68
2022/05/15 01:24:08;;;;;;;8.37;5.77;;;10.70;99.90;;;;;;5069407;28;20455;-66
2022/05/15 01:26:36;;;;;;;6.60;5.70;;;10.70;99.90;;;;;;5069363;28;20966;-68
2022/05/15 01:29:05;;;;;;;6.80;6.20;;;10.70;99.90;;;;;;5068930;28;21022;-68
2022/05/15 01:31:32;;;;;;;8.23;5.83;;;10.70;99.90;;;;;;5068775;28;20482;-68
2022/05/15 01:33:59;;;;;;;7.57;5.87;;;10.70;99.90;;;;;;5069619;28;20458;-68
2022/05/15 01:36:27;;;;;;;7.03;6.27;;;10.70;99.90;;;;;;5069140;28;20494;-67
2022/05/15 01:38:55;;;;;;;7.00;6.07;;;10.60;99.90;;;;;;5069316;28;20467;-67
2022/05/15 01:41:22;;;;;;;6.30;5.70;;;10.50;99.90;;;;;;5068807;28;20454;-68
2022/05/15 01:43:52;;;;;;;7.00;5.90;;;10.50;99.90;;;;;;5069249;28;21124;-67
2022/05/15 01:46:21;;;;;;;6.90;5.67;;;10.50;99.90;;;;;;5069563;28;20451;-68
2022/05/15 01:48:48;;;;;;;5.93;5.20;;;10.50;99.90;;;;;;5068941;28;20549;-69
2022/05/15 01:51:15;;;;;;;9.23;6.30;;;10.50;99.90;;;;;;5068920;28;21008;-68
2022/05/15 01:53:42;;;;;;;5.73;5.23;;;10.50;99.90;;;;;;5069189;28;20454;-69
2022/05/15 01:56:10;;;;;;;6.60;5.77;;;10.40;99.90;;;;;;5068972;28;21152;-70
2022/05/15 01:58:38;;;;;;;8.83;6.30;;;10.40;99.90;;;;;;5068274;28;20477;-70
2022/05/15 02:01:05;;;;;;;6.10;5.50;;;10.40;99.90;;;;;;5067430;28;20568;-69
2022/05/15 02:03:32;;;;;;;8.80;6.07;;;10.40;99.90;;;;;;5067773;28;21039;-69
2022/05/15 02:05:59;;;;;;;10.70;6.20;;;10.30;99.90;;;;;;5067549;28;20961;-69
2022/05/15 02:08:26;;;;;;;5.80;5.20;;;10.30;99.90;;;;;;5068625;28;20474;-69
2022/05/15 02:10:53;;;;;;;6.77;5.30;;;10.40;99.90;;;;;;5068939;28;20479;-69
2022/05/15 02:13:21;;;;;;;11.73;6.10;;;10.40;99.90;;;;;;5069416;28;20486;-69
2022/05/15 02:15:48;;;;;;;7.90;5.70;;;10.30;99.90;;;;;;5069298;28;20483;-68
2022/05/15 02:18:15;;;;;;;7.37;5.70;;;10.30;99.90;;;;;;5069237;28;20478;-67
2022/05/15 02:20:42;;;;;;;7.90;5.70;;;10.20;99.90;;;;;;5068917;28;20960;-69
2022/05/15 02:23:09;;;;;;;9.20;5.97;;;10.10;99.90;;;;;;5069491;28;20446;-69
2022/05/15 02:25:37;;;;;;;9.97;6.23;;;10.10;99.90;;;;;;5069366;28;20454;-68
2022/05/15 02:28:05;;;;;;;6.40;5.60;;;10.00;99.90;;;;;;5069445;28;20521;-68
2022/05/15 02:30:34;;;;;;;8.80;6.47;;;10.10;99.90;;;;;;5068865;28;20574;-69
2022/05/15 02:33:01;;;;;;;10.00;6.23;;;10.00;99.90;;;;;;5069505;28;20454;-69
2022/05/15 02:35:28;;;;;;;6.47;5.77;;;10.00;99.90;;;;;;5069416;28;20479;-69
2022/05/15 02:37:54;;;;;;;8.73;6.13;;;10.00;99.90;;;;;;5069038;28;20447;-68
2022/05/15 02:40:23;;;;;;;8.70;6.17;;;9.90;99.90;;;;;;5071996;28;20453;-69
2022/05/15 02:42:53;;;;;;;9.03;6.43;;;9.80;99.90;;;;;;5073182;28;20447;-68
2022/05/15 02:45:20;;;;;;;7.43;6.07;;;9.90;99.90;;;;;;5073078;28;20458;-69
2022/05/15 02:47:48;;;;;;;7.10;5.27;;;9.90;99.90;;;;;;5073205;28;20545;-69
2022/05/15 02:53:00;;;;;;;7.90;6.30;;;9.90;99.90;;;;;;5073091;28;20418;-68
2022/05/15 02:55:27;;;;;;;7.13;5.43;;;9.80;99.90;;;;;;5072971;28;20451;-68
2022/05/15 02:57:54;;;;;;;6.80;5.20;;;9.80;99.90;;;;;;5072773;28;20816;-69
2022/05/15 03:00:23;;;;;;;7.63;6.00;;;9.80;99.90;;;;;;5072705;28;20443;-68
2022/05/15 03:02:52;;;;;;;8.17;5.20;;;9.70;99.90;;;;;;5072778;28;20467;-68
2022/05/15 03:05:20;;;;;;;6.60;5.00;;;9.70;99.90;;;;;;5073105;28;20442;-68
2022/05/15 03:07:47;;;;;;;6.23;5.47;;;9.70;99.90;;;;;;5072774;28;20447;-68
2022/05/15 03:10:16;;;;;;;6.27;5.23;;;9.70;99.90;;;;;;5072155;28;20482;-69
2022/05/15 03:12:44;;;;;;;6.47;5.70;;;9.70;99.90;;;;;;5072954;28;20442;-68
2022/05/15 03:15:14;;;;;;;6.67;5.40;;;9.70;99.90;;;;;;5072925;28;20443;-69
2022/05/15 03:17:41;;;;;;;5.63;4.90;;;9.60;99.90;;;;;;5073086;28;20862;-68
2022/05/15 03:20:11;;;;;;;6.87;5.07;;;9.60;99.90;;;;;;5072260;28;20531;-69
2022/05/15 03:22:38;;;;;;;5.60;5.00;;;9.60;99.90;;;;;;5072668;28;20439;-68
2022/05/15 03:25:06;;;;;;;8.40;5.37;;;9.50;99.90;;;;;;5072666;28;20465;-69
2022/05/15 03:27:33;;;;;;;6.20;5.00;;;9.50;99.90;;;;;;5072782;28;20457;-67
2022/05/15 03:29:59;;;;;;;7.40;4.70;;;9.50;99.90;;;;;;5072190;28;20558;-67
2022/05/15 03:32:26;;;;;;;8.53;5.93;;;9.60;99.90;;;;;;5072729;28;20986;-69
2022/05/15 03:34:53;;;;;;;7.87;5.03;;;9.60;99.90;;;;;;5072439;28;20439;-68
2022/05/15 03:37:21;;;;;;;6.53;4.73;;;9.60;99.90;;;;;;5072306;28;20841;-67
2022/05/15 03:39:48;;;;;;;6.70;4.80;;;9.60;99.90;;;;;;5072121;28;20471;-68
2022/05/15 03:42:15;;;;;;;8.57;5.30;;;9.60;99.90;;;;;;5072356;28;20454;-68
2022/05/15 03:44:42;;;;;;;7.30;6.00;;;9.70;99.90;;;;;;5071965;28;20457;-68
2022/05/15 03:47:09;;;;;;;6.90;6.10;;;9.70;99.90;;;;;;5072176;28;20481;-68
2022/05/15 03:49:37;;;;;;;6.20;5.20;;;9.70;99.90;;;;;;5071907;28;20470;-68
2022/05/15 03:52:06;;;;;;;6.60;5.17;;;9.70;99.90;;;;;;5070974;28;20996;-68
2022/05/15 03:54:34;;;;;;;5.97;5.37;;;9.50;99.90;;;;;;5071921;28;20937;-68
2022/05/15 03:57:01;;;;;;;6.97;5.30;;;9.50;99.90;;;;;;5071599;28;20479;-68
2022/05/15 03:59:31;;;;;;;7.70;5.00;;;9.50;99.90;;;;;;5071771;28;20467;-69
2022/05/15 04:01:58;;;;;;;5.90;5.27;;;9.50;99.90;;;;;;5071143;28;20462;-68
2022/05/15 04:04:25;;;;;;;6.90;6.20;;;9.50;99.90;;;;;;5071606;28;20459;-67
2022/05/15 04:06:52;;;;;;;8.60;5.03;;;9.50;99.90;;;;;;5071814;28;20686;-68
2022/05/15 04:09:19;;;;;;;6.00;4.90;;;9.50;99.90;;;;;;5071668;28;20494;-69
2022/05/15 04:11:47;;;;;;;7.73;5.10;;;9.50;99.90;;;;;;5071144;28;20510;-68
2022/05/15 04:14:14;;;;;;;6.13;5.07;;;9.60;99.90;;;;;;5071438;28;20454;-68
2022/05/15 04:16:41;;;;;;;6.57;5.30;;;9.60;99.90;;;;;;5071396;28;20453;-68
2022/05/15 04:19:08;;;;;;;6.00;5.40;;;9.60;99.90;;;;;;5071865;28;20550;-70
2022/05/15 04:21:37;;;;;;;9.27;6.00;;;9.70;99.90;;;;;;5071904;28;21022;-69
2022/05/15 04:24:05;;;;;;;5.43;4.87;;;9.70;99.90;;;;;;5071391;28;20447;-68
2022/05/15 04:26:33;;;;;;;6.67;5.87;;;9.80;99.90;;;;;;5071147;28;20442;-68
2022/05/15 04:29:01;;;;;;;6.77;5.57;;;9.70;99.90;;;;;;5070980;28;20451;-68
2022/05/15 04:31:28;;;;;;;6.53;5.60;;;9.80;99.90;;;;;;5070711;28;20487;-68
2022/05/15 04:33:55;;;;;;;7.03;5.90;;;9.80;99.90;;;;;;5071248;28;20888;-68
2022/05/15 04:36:22;;;;;;;6.50;4.90;;;10.00;99.90;;;;;;5071029;28;20453;-68
2022/05/15 04:38:49;;;;;;;7.50;5.40;;;10.10;99.90;;;;;;5071024;28;20467;-68
2022/05/15 04:41:16;;;;;;;8.77;5.50;;;10.20;99.90;;;;;;5070661;28;20929;-68
2022/05/15 04:43:43;;;;;;;6.50;5.00;;;10.20;99.90;;;;;;5070831;28;20455;-69
2022/05/15 04:46:11;;;;;;;5.50;4.90;;;10.30;99.90;;;;;;5070752;28;20459;-68
2022/05/15 04:48:38;;;;;;;4.40;4.00;;;10.40;99.90;;;;;;5070550;28;20502;-69
2022/05/15 04:51:05;;;;;;;8.57;4.50;;;10.20;99.90;;;;;;5070504;28;20561;-69
2022/05/15 04:53:32;;;;;;;5.10;4.60;;;10.30;99.90;;;;;;5070518;28;20984;-69
2022/05/15 04:56:00;;;;;;;7.40;5.23;;;10.40;99.90;;;;;;5070521;28;20445;-68
2022/05/15 04:58:27;;;;;;;6.80;4.40;;;10.50;99.90;;;;;;5070443;28;20845;-68
2022/05/15 05:00:54;;;;;;;6.17;5.00;;;10.50;99.90;;;;;;5070140;28;21235;-69
2022/05/15 05:03:23;;;;;;;6.33;5.00;;;10.60;99.90;;;;;;5069673;28;20517;-68
2022/05/15 05:05:50;;;;;;;8.03;4.80;;;10.60;99.90;;;;;;5070575;28;20841;-68
2022/05/15 05:08:17;;;;;;;7.20;5.10;;;10.60;99.90;;;;;;5070332;28;20557;-68
2022/05/15 05:10:43;;;;;;;9.10;6.80;;;10.70;99.90;;;;;;5069807;28;20483;-68
2022/05/15 05:13:10;;;;;;;5.67;4.83;;;10.80;99.90;;;;;;5070208;28;20835;-68
2022/05/15 05:15:37;;;;;;;5.80;5.00;;;10.80;99.90;;;;;;5070074;28;20989;-69
2022/05/15 05:18:04;;;;;;;7.67;4.87;;;10.90;99.90;;;;;;5070226;28;20902;-68
2022/05/15 05:20:32;;;;;;;7.30;5.60;;;10.90;99.90;;;;;;5069823;28;20453;-69
2022/05/15 05:22:59;;;;;;;8.73;5.50;;;11.00;99.90;;;;;;5070113;28;20880;-69
2022/05/15 05:25:26;;;;;;;6.97;5.70;;;11.00;99.90;;;;;;5069724;28;20454;-69
2022/05/15 05:27:53;;;;;;;6.60;5.40;;;11.20;99.90;;;;;;5069844;28;20483;-69
2022/05/15 05:30:23;;;;;;;5.90;5.13;;;11.30;99.90;;;;;;5069729;28;20451;-69
2022/05/15 05:32:50;;;;;;;6.00;4.77;;;11.40;99.90;;;;;;5070096;28;20838;-68
2022/05/15 05:35:19;;;;;;;6.43;5.03;;;11.50;99.90;;;;;;5069998;28;20455;-69
2022/05/15 05:37:47;;;;;;;7.00;5.30;;;11.60;99.90;;;;;;5069849;28;20455;-68
2022/05/15 05:40:15;;;;;;;6.63;5.63;;;11.70;99.90;;;;;;5069515;28;20450;-69
2022/05/15 05:42:42;;;;;;;6.50;5.03;;;11.90;99.90;;;;;;5069796;28;20955;-70
2022/05/15 05:45:09;;;;;;;7.33;5.40;;;12.00;99.90;;;;;;5070044;28;20449;-68
2022/05/15 05:47:36;;;;;;;5.93;5.33;;;12.20;99.90;;;;;;5069495;28;20458;-68
2022/05/15 05:50:05;;;;;;;6.80;4.60;;;12.20;99.90;;;;;;5069406;28;20457;-68
2022/05/15 05:52:31;;;;;;;5.37;4.87;;;12.30;99.90;;;;;;5069635;28;20483;-69
2022/05/15 05:55:00;;;;;;;7.90;4.87;;;12.40;99.90;;;;;;5069678;28;20896;-69
2022/05/15 05:57:26;;;;;;;5.83;5.13;;;12.60;99.90;;;;;;5069885;28;20534;-69
2022/05/15 05:59:53;;;;;;;7.07;5.30;;;12.70;99.90;;;;;;5069507;28;20463;-68
2022/05/15 06:02:21;;;;;;;5.83;4.47;;;12.90;99.90;;;;;;5069503;28;20550;-68
2022/05/15 06:04:50;;;;;;;5.83;5.03;;;13.10;99.90;;;;;;5069670;28;20924;-68
2022/05/15 06:07:19;;;;;;;6.87;4.87;;;13.20;99.90;;;;;;5069563;28;20442;-69
2022/05/15 06:09:48;;;;;;;6.50;4.60;;;13.30;99.90;;;;;;5069702;28;20477;-69
2022/05/15 06:12:18;;;;;;;6.57;4.87;;;13.40;99.90;;;;;;5069569;28;21084;-67
2022/05/15 06:14:45;;;;;;;6.90;4.10;;;13.60;99.90;;;;;;5069866;28;20447;-68
2022/05/15 06:17:12;;;;;;;5.33;4.07;;;13.70;99.90;;;;;;5069810;28;20453;-69
2022/05/15 06:19:40;;;;;;;5.90;4.80;;;13.70;99.90;;;;;;5069307;28;20467;-68
2022/05/15 06:22:08;;;;;;;5.47;4.33;;;13.80;99.90;;;;;;5069527;28;20899;-69
2022/05/15 06:24:35;;;;;;;4.97;4.40;;;13.90;99.90;;;;;;5069322;28;20538;-69
2022/05/15 06:27:03;;;;;;;5.30;4.80;;;14.10;99.90;;;;;;5069691;28;20823;-69
2022/05/15 06:29:31;;;;;;;6.13;4.80;;;14.20;99.90;;;;;;5069371;28;20467;-69
2022/05/15 06:31:58;;;;;;;7.10;4.90;;;14.30;99.90;;;;;;5069200;28;20475;-68
2022/05/15 06:34:26;;;;;;;4.97;4.20;;;14.30;99.90;;;;;;5069297;28;20530;-69
2022/05/15 06:36:52;;;;;;;4.57;4.17;;;14.40;99.90;;;;;;5069270;28;20443;-68
2022/05/15 06:39:19;;;;;;;5.07;4.10;;;14.50;99.90;;;;;;5068990;28;20851;-68
2022/05/15 06:41:50;;;;;;;5.97;4.73;;;14.70;99.90;;;;;;5069126;28;20443;-67
2022/05/15 06:44:17;;;;;;;5.00;4.23;;;14.80;99.90;;;;;;5069237;28;20504;-69
2022/05/15 06:46:46;;;;;;;6.10;4.73;;;14.90;99.90;;;;;;5069237;28;20446;-68
2022/05/15 06:49:13;;;;;;;5.40;4.67;;;15.10;99.90;;;;;;5069376;28;20471;-68
2022/05/15 06:51:40;;;;;;;4.80;3.90;;;15.20;99.90;;;;;;5068981;28;20561;-69
2022/05/15 06:54:07;;;;;;;14.20;4.67;;;15.30;99.90;;;;;;5069218;28;20957;-68
2022/05/15 06:59:18;;;;;;;5.73;3.97;;;15.50;99.90;;;;;;5069001;28;20492;-68
2022/05/15 07:01:46;;;;;;;6.40;3.87;;;15.70;99.90;;;;;;5068891;28;20542;-68
2022/05/15 07:04:13;;;;;;;5.40;3.90;;;15.80;99.90;;;;;;5069270;28;20447;-68
2022/05/15 07:06:40;;;;;;;6.93;3.50;;;16.00;99.90;;;;;;5069232;28;20439;-68
2022/05/15 07:09:07;;;;;;;7.20;4.20;;;16.00;99.90;;;;;;5068933;28;20477;-68
2022/05/15 07:11:34;;;;;;;4.17;3.77;;;16.10;99.90;;;;;;5068537;28;20563;-67
2022/05/15 07:14:01;;;;;;;4.90;3.83;;;16.20;99.90;;;;;;5068761;28;20457;-67
2022/05/15 07:16:28;;;;;;;5.00;3.60;;;16.40;99.90;;;;;;5069066;28;20534;-68
2022/05/15 07:18:56;;;;;;;3.93;3.20;;;16.50;99.90;;;;;;5069087;28;20467;-68
2022/05/15 07:21:23;;;;;;;5.30;4.17;;;16.60;99.90;;;;;;5068528;28;20450;-66
2022/05/15 07:23:49;;;;;;;6.33;3.63;;;16.80;99.90;;;;;;5068762;28;20447;-68
2022/05/15 07:26:16;;;;;;;5.10;3.20;;;16.90;99.90;;;;;;5069704;28;21238;-68
2022/05/15 07:28:45;;;;;;;5.33;3.20;;;17.00;99.90;;;;;;5072124;28;20561;-66
2022/05/15 07:31:12;;;;;;;4.53;3.43;;;17.10;99.90;;;;;;5071906;28;20534;-66
2022/05/15 07:33:39;;;;;;;5.30;3.10;;;17.20;99.90;;;;;;5072235;28;20550;-66
2022/05/15 07:36:07;;;;;;;5.43;3.27;;;17.40;99.90;;;;;;5072103;28;20538;-66
2022/05/15 07:38:34;;;;;;;6.00;3.00;;;17.60;99.90;;;;;;5071691;28;20467;-66
2022/05/15 07:41:01;;;;;;;6.10;3.40;;;17.80;99.90;;;;;;5069758;28;20542;-66
2022/05/15 07:43:28;;;;;;;5.73;3.40;;;17.90;99.90;;;;;;5071864;28;20443;-66
2022/05/15 07:45:55;;;;;;;4.90;3.20;;;17.90;99.90;;;;;;5072286;28;20455;-66
2022/05/15 07:48:21;;;;;;;4.40;3.00;;;17.90;99.90;;;;;;5071731;28;20467;-66
2022/05/15 07:50:50;;;;;;;7.90;3.50;;;18.10;99.90;;;;;;5071738;28;20443;-65
2022/05/15 07:53:18;;;;;;;5.00;3.67;;;18.30;99.90;;;;;;5071760;28;20479;-66
2022/05/15 07:55:45;;;;;;;6.30;3.90;;;18.50;99.90;;;;;;5071789;28;20447;-66
2022/05/15 07:58:12;;;;;;;3.60;3.00;;;18.60;99.90;;;;;;5071657;28;21068;-66
2022/05/15 08:00:40;;;;;;;5.67;3.60;;;18.90;99.90;;;;;;5071476;28;20447;-67
2022/05/15 08:03:09;;;;;;;4.50;3.80;;;18.90;99.90;;;;;;5071898;28;20454;-66
2022/05/15 08:08:27;;;;;;;3.23;2.73;;;19.20;99.90;;;;;;5071635;28;20508;-66
2022/05/15 08:10:54;;;;;;;5.10;3.30;;;19.40;99.90;;;;;;5071380;28;20443;-67
2022/05/15 08:13:25;;;;;;;4.93;3.80;;;19.50;99.90;;;;;;5071162;28;20482;-68
2022/05/15 08:15:53;;;;;;;5.30;3.47;;;19.50;99.90;;;;;;5066525;28;20451;-68
2022/05/15 08:23:52;;;;;;;4.27;3.27;;;19.90;99.90;;;;;;5071552;28;20450;-67
2022/05/15 08:26:20;;;;;;;4.47;3.20;;;20.00;99.90;;;;;;5071343;28;20454;-67
2022/05/15 08:28:47;;;;;;;7.53;3.70;;;20.10;99.90;;;;;;5051425;28;20517;-68
2022/05/15 08:31:14;;;;;;;4.70;3.10;;;20.30;99.90;;;;;;5051092;28;20448;-68
2022/05/15 08:33:42;;;;;;;3.60;3.20;;;20.50;99.90;;;;;;5051649;28;20476;-68
2022/05/15 08:36:09;;;;;;;4.97;3.60;;;20.60;99.90;;;;;;5051249;28;20878;-67
2022/05/15 08:38:38;;;;;;;3.47;2.83;;;20.90;99.90;;;;;;5075943;28;20549;-68
2022/05/15 08:41:16;;;;;;;4.80;3.80;;;21.00;99.90;;;;;;5091642;28;20442;-68
2022/05/15 08:43:46;;;;;;;8.57;3.77;;;21.10;99.90;;;;;;5087984;28;22310;-67
2022/05/15 08:46:30;;;;;;;3.60;2.87;;;21.10;99.90;;;;;;5071398;28;20983;-67
2022/05/15 08:49:06;;;;;;;6.07;3.40;;;21.30;99.90;;;;;;5063639;28;20479;-67
2022/05/15 08:51:33;;;;;;;4.80;3.00;;;21.50;99.90;;;;;;5060247;28;20956;-68
2022/05/15 08:54:02;;;;;;;4.90;3.17;;;21.50;99.90;;;;;;5060008;28;20461;-68
2022/05/15 08:56:39;;;;;;;6.20;3.20;;;21.70;99.90;;;;;;5058578;28;20444;-68
2022/05/15 08:59:14;;;;;;;4.17;2.57;;;22.00;99.90;;;;;;5059593;28;20988;-67
2022/05/15 09:01:40;;;;;;;4.57;3.00;;;22.00;99.90;;;;;;5065868;28;20463;-72
2022/05/15 09:04:08;;;;;;;4.67;2.60;;;22.10;99.90;;;;;;5059090;28;20464;-69
2022/05/15 09:06:48;;;;;;;5.63;2.90;;;22.30;99.90;;;;;;5070452;28;20940;-68
2022/05/15 09:09:22;;;;;;;3.97;2.93;;;22.70;99.90;;;;;;5070272;28;20455;-68
2022/05/15 09:11:56;;;;;;;4.80;3.47;;;22.80;99.90;;;;;;5065862;28;20821;-70
2022/05/15 09:14:36;;;;;;;4.43;2.70;;;22.90;99.90;;;;;;5062528;28;20455;-68
2022/05/15 09:17:16;;;;;;;5.03;3.00;;;23.00;99.90;;;;;;5068397;28;20925;-68
2022/05/15 09:19:43;;;;;;;4.60;2.70;;;23.30;99.90;;;;;;5055010;28;20537;-68
2022/05/15 09:22:13;;;;;;;3.30;2.77;;;23.40;98.80;;;;;;5064678;28;20475;-68
2022/05/15 09:24:45;;;;;;;4.53;2.80;;;23.70;99.50;;;;;;5067427;28;20534;-68
2022/05/15 09:27:17;;;;;;;4.63;2.87;;;23.90;97.80;;;;;;5067021;28;20496;-65
2022/05/15 09:29:52;;;;;;;4.00;2.50;;;24.10;99.90;;;;;;5063865;28;20474;-66
2022/05/15 09:32:31;;;;;;;6.07;2.57;;;24.30;95.90;;;;;;5061609;28;20900;-65
2022/05/15 09:35:01;;;;;;;5.20;2.70;;;24.40;96.30;;;;;;5068530;28;20439;-66
2022/05/15 09:40:21;;;;;;;5.70;2.80;;;24.40;93.20;;;;;;5059242;28;20438;-66
2022/05/15 09:45:50;;;;;;;5.77;2.37;;;24.70;93.50;;;;;;5063260;28;20427;-66
2022/05/15 09:48:23;;;;;;;4.40;1.83;;;24.90;94.40;;;;;;5068409;28;20455;-67
2022/05/15 09:51:02;;;;;;;7.33;2.30;;;25.50;91.30;;;;;;5065146;28;20455;-66
2022/05/15 09:53:41;;;;;;;3.43;1.97;;;26.10;82.80;;;;;;5064533;28;20953;-66
2022/05/15 09:56:11;;;;;;;3.40;2.07;;;27.10;84.60;;;;;;5068308;28;20464;-67
2022/05/15 09:58:44;;;;;;;4.53;2.40;;;28.30;81.20;;;;;;5063106;28;20991;-66
2022/05/15 10:01:33;;;;;;;3.67;2.10;;;29.20;78.20;;;;;;5068486;28;20526;-64
2022/05/15 10:04:00;;;;;;;2.97;2.00;;;30.30;72.00;;;;;;5069358;28;20448;-67
2022/05/15 10:06:32;;;;;;;4.10;1.97;;;30.80;65.60;;;;;;5065629;28;20459;-66
2022/05/15 10:09:09;;;;;;;2.97;2.00;;;30.60;61.90;;;;;;5064846;28;21107;-67
2022/05/15 10:11:38;;;;;;;3.93;1.67;;;30.70;62.50;;;;;;5064292;28;20534;-67
2022/05/15 10:14:08;;;;;;;2.77;1.77;;;30.50;61.80;;;;;;5059947;28;20570;-66
2022/05/15 10:16:46;;;;;;;4.67;2.50;;;31.10;65.00;;;;;;5063669;28;20972;-67
2022/05/15 10:19:19;;;;;;;5.43;2.30;;;31.60;64.80;;;;;;5062500;28;20487;-67
2022/05/15 10:21:50;;;;;;;4.10;2.10;;;31.90;62.40;;;;;;5058814;28;20466;-68
2022/05/15 10:24:24;;;;;;;2.97;1.90;;;32.10;58.40;;;;;;5062907;28;20510;-66
2022/05/15 10:27:00;;;;;;;3.20;2.00;;;31.80;54.70;;;;;;5068778;28;20481;-65
2022/05/15 10:29:37;;;;;;;3.50;2.13;;;31.00;57.60;;;;;;5063799;28;21031;-67
2022/05/15 10:32:10;;;;;;;5.13;2.27;;;31.20;61.90;;;;;;5058595;28;20867;-68
2022/05/15 10:34:37;;;;;;;3.53;2.00;;;31.50;59.90;;;;;;5065204;28;21118;-68
2022/05/15 10:37:19;;;;;;;5.43;2.53;;;31.80;56.30;;;;;;5068011;28;20803;-68
2022/05/15 10:40:02;;;;;;;3.30;1.90;;;32.10;59.30;;;;;;5063178;28;21052;-68
2022/05/15 10:42:39;;;;;;;3.27;1.73;;;32.30;58.60;;;;;;5063306;28;20480;-66
2022/05/15 10:45:19;;;;;;;4.10;1.90;;;32.40;58.90;;;;;;5065095;28;20447;-67
2022/05/15 10:47:58;;;;;;;3.30;1.70;;;32.40;55.20;;;;;;5066319;28;20482;-67
2022/05/15 10:50:31;;;;;;;4.23;2.20;;;32.80;57.10;;;;;;5062319;28;20964;-66
2022/05/15 10:59:20;;;;;;;3.47;1.87;;;33.10;54.90;;;;;;5062383;28;20486;-65
2022/05/15 11:01:54;;;;;;;3.70;1.80;;;33.40;55.10;;;;;;5062709;28;20451;-65
2022/05/15 11:04:34;;;;;;;2.97;2.00;;;33.70;53.70;;;;;;5067794;28;20475;-67
2022/05/15 11:07:05;;;;;;;4.00;2.10;;;33.70;54.20;;;;;;5065601;28;20542;-66
2022/05/15 11:09:43;;;;;;;5.77;2.10;;;33.50;50.60;;;;;;5068060;28;20465;-66
2022/05/15 11:12:17;;;;;;;2.63;1.90;;;33.40;54.10;;;;;;5064584;28;20469;-66
2022/05/15 11:14:56;;;;;;;3.43;2.73;;;33.70;54.00;;;;;;5066951;28;20439;-67
2022/05/15 11:17:31;;;;;;;4.10;1.80;;;33.70;54.50;;;;;;5067336;28;20453;-67
2022/05/15 11:20:05;;;;;;;4.43;2.60;;;33.60;52.30;;;;;;5067448;28;20471;-67
2022/05/15 11:22:38;;;;;;;3.10;1.90;;;33.10;50.90;;;;;;5067240;28;20493;-68
2022/05/15 11:25:12;;;;;;;4.50;2.40;;;33.00;53.60;;;;;;5067587;28;20446;-67
2022/05/15 11:27:45;;;;;;;4.60;2.10;;;33.30;52.30;;;;;;5062981;28;20550;-67
2022/05/15 11:30:17;;;;;;;4.30;2.13;;;33.40;51.20;;;;;;5064913;28;20534;-67
2022/05/15 11:33:04;;;;;;;3.00;1.90;;;34.00;53.40;;;;;;5067039;28;20443;-67
2022/05/15 11:35:37;;;;;;;3.23;2.07;;;34.20;51.50;;;;;;5067057;28;20807;-66
2022/05/15 11:38:20;;;;;;;4.60;2.70;;;33.60;50.30;;;;;;5067592;28;20562;-67
2022/05/15 11:40:49;;;;;;;3.70;2.23;;;33.20;51.20;;;;;;5066936;28;20446;-65
2022/05/15 11:43:57;;;;;;;3.50;2.27;;;33.80;52.80;;;;;;5067142;28;21038;-67
2022/05/15 11:46:59;;;;;;;5.00;2.10;;;34.10;50.70;;;;;;5066777;28;20866;-68
2022/05/15 11:49:35;;;;;;;4.90;2.00;;;33.80;48.90;;;;;;5059297;28;20555;-65
2022/05/15 11:52:33;;;;;;;4.67;2.33;;;33.90;55.90;;;;;;5065125;28;20449;-67
2022/05/15 11:55:00;;;;;;;3.40;2.10;;;34.10;52.50;;;;;;5065283;28;20459;-67
2022/05/15 11:57:38;;;;;;;4.57;2.43;;;34.40;49.60;;;;;;5067770;28;20447;-67
2022/05/15 12:00:11;;;;;;;3.87;2.30;;;34.80;48.80;;;;;;5066802;28;20458;-66
2022/05/15 12:02:57;;;;;;;5.17;1.93;;;34.20;47.90;;;;;;5067208;28;21271;-67
2022/05/15 12:05:39;;;;;;;4.57;2.07;;;34.40;49.70;;;;;;5067788;28;20443;-67
2022/05/15 12:08:31;;;;;;;4.40;2.10;;;34.80;50.20;;;;;;5067527;28;20495;-67
2022/05/15 12:11:00;;;;;;;2.20;1.57;;;35.30;52.20;;;;;;5066698;28;20431;-67
2022/05/15 12:13:34;;;;;;;2.63;2.17;;;35.20;48.20;;;;;;5067199;28;20963;-68
2022/05/15 12:16:24;;;;;;;3.00;2.00;;;35.60;53.50;;;;;;5067508;28;20462;-69
2022/05/15 12:19:17;;;;;;;5.20;2.10;;;35.60;51.90;;;;;;5059205;28;21211;-69
2022/05/15 12:21:54;;;;;;;3.20;1.90;;;35.70;47.70;;;;;;5065579;28;21088;-67
2022/05/15 12:24:31;;;;;;;4.20;2.20;;;36.10;49.50;;;;;;5066058;28;20480;-68
2022/05/15 12:27:08;;;;;;;4.87;2.30;;;36.40;50.20;;;;;;5066500;28;20513;-68
2022/05/15 12:29:53;;;;;;;2.67;1.90;;;36.60;49.00;;;;;;5067407;28;21003;-67
2022/05/15 12:32:29;;;;;;;4.03;2.20;;;36.70;46.60;;;;;;5060335;28;20444;-67
2022/05/15 12:34:56;;;;;;;3.80;1.60;;;37.10;44.20;;;;;;5062012;28;20700;-67
2022/05/15 12:37:28;;;;;;;3.33;1.80;;;37.50;44.00;;;;;;5069576;28;20945;-67
2022/05/15 12:39:58;;;;;;;5.93;1.70;;;37.40;45.00;;;;;;5069306;28;21046;-67
2022/05/15 12:42:34;;;;;;;5.00;1.80;;;37.10;45.30;;;;;;5070026;28;20443;-67
2022/05/15 12:45:06;;;;;;;3.53;1.83;;;36.60;43.30;;;;;;5069499;28;20439;-66
2022/05/15 12:47:33;;;;;;;3.70;1.87;;;36.70;45.70;;;;;;5069663;28;20458;-67
2022/05/15 12:50:03;;;;;;;3.40;1.90;;;36.00;47.00;;;;;;5069111;28;20933;-67
2022/05/15 12:52:33;;;;;;;5.93;2.10;;;36.20;46.00;;;;;;5066813;28;20450;-67
2022/05/15 12:55:02;;;;;;;3.43;1.73;;;35.80;44.10;;;;;;5070548;28;20439;-67
2022/05/15 12:57:30;;;;;;;4.57;2.00;;;35.00;45.60;;;;;;5067740;28;20538;-67
2022/05/15 12:59:57;;;;;;;5.23;2.10;;;35.60;45.10;;;;;;5069118;28;20478;-66
2022/05/15 13:02:32;;;;;;;3.57;2.23;;;36.30;44.40;;;;;;5069113;28;20455;-67
2022/05/15 13:05:01;;;;;;;3.67;2.03;;;35.80;42.50;;;;;;5076096;28;20483;-69
2022/05/15 13:07:36;;;;;;;2.77;1.73;;;35.50;43.50;;;;;;5053227;28;20475;-67
2022/05/15 13:10:06;;;;;;;3.07;1.87;;;35.80;46.50;;;;;;5069742;28;20447;-69
2022/05/15 13:12:34;;;;;;;4.17;2.37;;;36.40;44.60;;;;;;5070050;28;20533;-69
2022/05/15 13:15:03;;;;;;;2.73;1.60;;;36.80;43.80;;;;;;5060213;28;20495;-70
2022/05/15 13:17:36;;;;;;;5.83;1.87;;;37.70;44.70;;;;;;5063771;28;20474;-70
2022/05/15 13:20:09;;;;;;;6.37;2.20;;;38.40;41.00;;;;;;5062659;28;20714;-68
2022/05/15 13:22:38;;;;;;;3.57;2.10;;;38.50;44.30;;;;;;5064489;28;21100;-68
2022/05/15 13:25:10;;;;;;;4.43;2.30;;;37.40;39.10;;;;;;5062489;28;20859;-67
2022/05/15 13:27:42;;;;;;;3.30;1.93;;;37.00;43.80;;;;;;5063119;28;20865;-67
2022/05/15 13:30:11;;;;;;;5.03;2.80;;;37.50;44.30;;;;;;5054571;28;20454;-67